sensor_id;sensor_type;location;lat;lon;timestamp;P1;durP1;ratioP1;P2;durP2;ratioP2
12412;SDS011;13877;18.896;-99.222;2022-07-22T00:00:34;9.90;;;5.68;;
12412;SDS011;13877;18.896;-99.222;2022-07-22T00:03:01;14.52;;;6.22;;
12412;SDS011;13877;18.896;-99.222;2022-07-22T00:05:28;11.38;;;5.55;;
12412;SDS011;13877;18.896;-99.222;2022-07-22T00:07:54;10.15;;;5.93;;
12412;SDS011;13877;18.896;-99.222;2022-07-22T00:10:21;12.32;;;6.68;;
12412;SDS011;13877;18.896;-99.222;2022-07-22T00:12:48;15.05;;;6.30;;
12412;SDS011;13877;18.896;-99.222;2022-07-22T00:15:15;11.75;;;5.82;;
12412;SDS011;13877;18.896;-99.222;2022-07-22T00:17:43;10.63;;;6.18;;
12412;SDS011;13877;18.896;-99.222;2022-07-22T00:20:10;12.77;;;6.57;;
12412;SDS011;13877;18.896;-99.222;2022-07-22T00:22:37;10.30;;;6.22;;
12412;SDS011;13877;18.896;-99.222;2022-07-22T00:25:04;9.93;;;6.07;;
12412;SDS011;13877;18.896;-99.222;2022-07-22T00:27:31;12.77;;;6.35;;
12412;SDS011;13877;18.896;-99.222;2022-07-22T00:29:58;13.32;;;6.45;;
12412;SDS011;13877;18.896;-99.222;2022-07-22T00:32:25;14.88;;;6.63;;
12412;SDS011;13877;18.896;-99.222;2022-07-22T00:34:52;10.60;;;5.75;;
12412;SDS011;13877;18.896;-99.222;2022-07-22T00:37:18;11.07;;;6.00;;
12412;SDS011;13877;18.896;-99.222;2022-07-22T00:39:45;15.57;;;6.38;;
12412;SDS011;13877;18.896;-99.222;2022-07-22T00:42:14;11.10;;;6.57;;
12412;SDS011;13877;18.896;-99.222;2022-07-22T00:44:42;11.07;;;6.68;;
12412;SDS011;13877;18.896;-99.222;2022-07-22T00:47:09;11.07;;;6.38;;
12412;SDS011;13877;18.896;-99.222;2022-07-22T00:49:36;12.50;;;6.20;;
12412;SDS011;13877;18.896;-99.222;2022-07-22T00:52:03;11.30;;;6.65;;
12412;SDS011;13877;18.896;-99.222;2022-07-22T00:54:31;11.90;;;6.95;;
12412;SDS011;13877;18.896;-99.222;2022-07-22T00:56:59;8.05;;;5.78;;
12412;SDS011;13877;18.896;-99.222;2022-07-22T00:59:26;16.30;;;6.95;;
12412;SDS011;13877;18.896;-99.222;2022-07-22T01:01:53;9.57;;;6.45;;
12412;SDS011;13877;18.896;-99.222;2022-07-22T01:04:20;12.90;;;6.28;;
12412;SDS011;13877;18.896;-99.222;2022-07-22T01:06:47;13.88;;;7.00;;
12412;SDS011;13877;18.896;-99.222;2022-07-22T01:09:14;11.25;;;6.80;;
12412;SDS011;13877;18.896;-99.222;2022-07-22T01:11:41;9.90;;;6.50;;
12412;SDS011;13877;18.896;-99.222;2022-07-22T01:14:08;11.00;;;6.68;;
12412;SDS011;13877;18.896;-99.222;2022-07-22T01:16:35;14.98;;;6.47;;
12412;SDS011;13877;18.896;-99.222;2022-07-22T01:19:03;10.52;;;6.82;;
12412;SDS011;13877;18.896;-99.222;2022-07-22T01:21:30;9.93;;;6.28;;
12412;SDS011;13877;18.896;-99.222;2022-07-22T01:24:00;11.98;;;6.75;;
12412;SDS011;13877;18.896;-99.222;2022-07-22T01:26:27;10.95;;;7.35;;
12412;SDS011;13877;18.896;-99.222;2022-07-22T01:28:54;9.73;;;6.25;;
12412;SDS011;13877;18.896;-99.222;2022-07-22T01:31:21;16.13;;;7.00;;
12412;SDS011;13877;18.896;-99.222;2022-07-22T01:33:48;19.48;;;7.03;;
12412;SDS011;13877;18.896;-99.222;2022-07-22T01:36:15;14.60;;;7.20;;
12412;SDS011;13877;18.896;-99.222;2022-07-22T01:38:43;16.58;;;8.00;;
12412;SDS011;13877;18.896;-99.222;2022-07-22T01:41:09;13.60;;;7.43;;
12412;SDS011;13877;18.896;-99.222;2022-07-22T01:43:37;21.05;;;9.07;;
12412;SDS011;13877;18.896;-99.222;2022-07-22T01:46:05;14.55;;;8.18;;
12412;SDS011;13877;18.896;-99.222;2022-07-22T01:48:37;18.70;;;8.10;;
12412;SDS011;13877;18.896;-99.222;2022-07-22T01:51:06;15.52;;;8.02;;
12412;SDS011;13877;18.896;-99.222;2022-07-22T01:53:35;19.77;;;8.93;;
12412;SDS011;13877;18.896;-99.222;2022-07-22T01:56:20;14.05;;;8.35;;
12412;SDS011;13877;18.896;-99.222;2022-07-22T01:58:49;21.25;;;8.70;;
12412;SDS011;13877;18.896;-99.222;2022-07-22T02:01:21;18.10;;;9.13;;
12412;SDS011;13877;18.896;-99.222;2022-07-22T02:03:50;20.40;;;8.55;;
12412;SDS011;13877;18.896;-99.222;2022-07-22T02:06:17;16.90;;;8.27;;
12412;SDS011;13877;18.896;-99.222;2022-07-22T02:08:45;16.50;;;9.35;;
12412;SDS011;13877;18.896;-99.222;2022-07-22T02:11:20;16.20;;;8.95;;
12412;SDS011;13877;18.896;-99.222;2022-07-22T02:14:06;13.07;;;8.48;;
12412;SDS011;13877;18.896;-99.222;2022-07-22T02:16:33;22.40;;;8.43;;
12412;SDS011;13877;18.896;-99.222;2022-07-22T02:19:00;11.18;;;7.35;;
12412;SDS011;13877;18.896;-99.222;2022-07-22T02:21:27;18.08;;;8.05;;
12412;SDS011;13877;18.896;-99.222;2022-07-22T02:23:58;14.98;;;7.47;;
12412;SDS011;13877;18.896;-99.222;2022-07-22T02:26:26;16.30;;;8.15;;
12412;SDS011;13877;18.896;-99.222;2022-07-22T02:28:52;14.48;;;7.97;;
12412;SDS011;13877;18.896;-99.222;2022-07-22T02:31:21;16.92;;;7.35;;
12412;SDS011;13877;18.896;-99.222;2022-07-22T02:33:48;13.63;;;8.10;;
12412;SDS011;13877;18.896;-99.222;2022-07-22T02:36:15;19.17;;;8.02;;
12412;SDS011;13877;18.896;-99.222;2022-07-22T02:38:43;17.27;;;8.70;;
12412;SDS011;13877;18.896;-99.222;2022-07-22T02:41:10;17.17;;;8.75;;
12412;SDS011;13877;18.896;-99.222;2022-07-22T02:43:45;21.98;;;8.23;;
12412;SDS011;13877;18.896;-99.222;2022-07-22T02:46:12;20.75;;;8.68;;
12412;SDS011;13877;18.896;-99.222;2022-07-22T02:48:39;14.30;;;7.68;;
12412;SDS011;13877;18.896;-99.222;2022-07-22T02:51:10;23.15;;;8.40;;
12412;SDS011;13877;18.896;-99.222;2022-07-22T02:53:55;17.85;;;8.18;;
12412;SDS011;13877;18.896;-99.222;2022-07-22T02:56:41;14.82;;;8.48;;
12412;SDS011;13877;18.896;-99.222;2022-07-22T02:59:08;18.95;;;8.45;;
12412;SDS011;13877;18.896;-99.222;2022-07-22T03:01:35;16.88;;;9.73;;
12412;SDS011;13877;18.896;-99.222;2022-07-22T03:04:03;18.80;;;9.48;;
12412;SDS011;13877;18.896;-99.222;2022-07-22T03:06:33;19.02;;;9.35;;
12412;SDS011;13877;18.896;-99.222;2022-07-22T03:09:20;17.10;;;9.20;;
12412;SDS011;13877;18.896;-99.222;2022-07-22T03:11:47;14.00;;;8.82;;
12412;SDS011;13877;18.896;-99.222;2022-07-22T03:14:14;21.48;;;9.48;;
12412;SDS011;13877;18.896;-99.222;2022-07-22T03:16:42;21.25;;;8.23;;
12412;SDS011;13877;18.896;-99.222;2022-07-22T03:19:09;15.05;;;8.80;;
12412;SDS011;13877;18.896;-99.222;2022-07-22T03:21:36;20.85;;;10.00;;
12412;SDS011;13877;18.896;-99.222;2022-07-22T03:24:03;24.45;;;10.27;;
12412;SDS011;13877;18.896;-99.222;2022-07-22T03:26:31;17.83;;;9.32;;
12412;SDS011;13877;18.896;-99.222;2022-07-22T03:28:58;23.67;;;9.93;;
12412;SDS011;13877;18.896;-99.222;2022-07-22T03:31:25;23.63;;;11.75;;
12412;SDS011;13877;18.896;-99.222;2022-07-22T03:33:52;26.10;;;10.80;;
12412;SDS011;13877;18.896;-99.222;2022-07-22T03:36:20;23.08;;;11.63;;
12412;SDS011;13877;18.896;-99.222;2022-07-22T03:38:50;23.02;;;11.95;;
12412;SDS011;13877;18.896;-99.222;2022-07-22T03:41:17;28.58;;;10.85;;
12412;SDS011;13877;18.896;-99.222;2022-07-22T03:43:44;20.38;;;9.73;;
12412;SDS011;13877;18.896;-99.222;2022-07-22T03:46:11;27.17;;;10.52;;
12412;SDS011;13877;18.896;-99.222;2022-07-22T03:48:39;25.67;;;11.32;;
12412;SDS011;13877;18.896;-99.222;2022-07-22T03:51:06;31.25;;;13.07;;
12412;SDS011;13877;18.896;-99.222;2022-07-22T03:53:33;28.52;;;12.55;;
12412;SDS011;13877;18.896;-99.222;2022-07-22T03:56:01;34.25;;;14.07;;
12412;SDS011;13877;18.896;-99.222;2022-07-22T03:58:30;34.78;;;12.55;;
12412;SDS011;13877;18.896;-99.222;2022-07-22T04:00:58;27.27;;;13.18;;
12412;SDS011;13877;18.896;-99.222;2022-07-22T04:03:25;36.80;;;13.55;;
12412;SDS011;13877;18.896;-99.222;2022-07-22T04:05:52;26.67;;;12.02;;
12412;SDS011;13877;18.896;-99.222;2022-07-22T04:08:39;30.77;;;14.07;;
12412;SDS011;13877;18.896;-99.222;2022-07-22T04:11:07;36.15;;;15.18;;
12412;SDS011;13877;18.896;-99.222;2022-07-22T04:13:34;30.80;;;14.52;;
12412;SDS011;13877;18.896;-99.222;2022-07-22T04:16:01;37.28;;;13.98;;
12412;SDS011;13877;18.896;-99.222;2022-07-22T04:18:32;40.97;;;14.18;;
12412;SDS011;13877;18.896;-99.222;2022-07-22T04:20:59;39.22;;;14.45;;
12412;SDS011;13877;18.896;-99.222;2022-07-22T04:23:43;33.58;;;13.57;;
12412;SDS011;13877;18.896;-99.222;2022-07-22T04:26:30;29.10;;;12.00;;
12412;SDS011;13877;18.896;-99.222;2022-07-22T04:28:58;34.90;;;12.20;;
12412;SDS011;13877;18.896;-99.222;2022-07-22T04:31:25;38.65;;;12.32;;
12412;SDS011;13877;18.896;-99.222;2022-07-22T04:33:59;29.05;;;11.93;;
12412;SDS011;13877;18.896;-99.222;2022-07-22T04:36:26;30.92;;;10.93;;
12412;SDS011;13877;18.896;-99.222;2022-07-22T04:38:53;28.17;;;11.30;;
12412;SDS011;13877;18.896;-99.222;2022-07-22T04:41:23;23.15;;;10.38;;
12412;SDS011;13877;18.896;-99.222;2022-07-22T04:43:51;23.63;;;10.85;;
12412;SDS011;13877;18.896;-99.222;2022-07-22T04:46:22;27.48;;;11.48;;
12412;SDS011;13877;18.896;-99.222;2022-07-22T04:48:49;23.23;;;10.57;;
12412;SDS011;13877;18.896;-99.222;2022-07-22T04:51:16;19.52;;;10.60;;
12412;SDS011;13877;18.896;-99.222;2022-07-22T04:54:02;23.88;;;10.23;;
12412;SDS011;13877;18.896;-99.222;2022-07-22T04:56:29;28.73;;;10.93;;
12412;SDS011;13877;18.896;-99.222;2022-07-22T04:58:56;25.30;;;10.30;;
12412;SDS011;13877;18.896;-99.222;2022-07-22T05:01:28;26.85;;;11.57;;
12412;SDS011;13877;18.896;-99.222;2022-07-22T05:03:55;28.40;;;10.82;;
12412;SDS011;13877;18.896;-99.222;2022-07-22T05:06:22;32.08;;;12.00;;
12412;SDS011;13877;18.896;-99.222;2022-07-22T05:08:51;37.42;;;13.02;;
12412;SDS011;13877;18.896;-99.222;2022-07-22T05:11:19;30.15;;;11.35;;
12412;SDS011;13877;18.896;-99.222;2022-07-22T05:13:47;31.30;;;13.20;;
12412;SDS011;13877;18.896;-99.222;2022-07-22T05:16:14;30.67;;;11.63;;
12412;SDS011;13877;18.896;-99.222;2022-07-22T05:18:41;31.75;;;12.30;;
12412;SDS011;13877;18.896;-99.222;2022-07-22T05:21:12;30.70;;;11.60;;
12412;SDS011;13877;18.896;-99.222;2022-07-22T05:23:39;30.25;;;12.50;;
12412;SDS011;13877;18.896;-99.222;2022-07-22T05:26:06;37.10;;;12.77;;
12412;SDS011;13877;18.896;-99.222;2022-07-22T05:28:33;31.67;;;14.75;;
12412;SDS011;13877;18.896;-99.222;2022-07-22T05:31:00;32.22;;;14.00;;
12412;SDS011;13877;18.896;-99.222;2022-07-22T05:33:30;34.50;;;16.27;;
12412;SDS011;13877;18.896;-99.222;2022-07-22T05:36:21;39.78;;;15.75;;
12412;SDS011;13877;18.896;-99.222;2022-07-22T05:38:49;35.95;;;15.75;;
12412;SDS011;13877;18.896;-99.222;2022-07-22T05:41:16;39.28;;;15.88;;
12412;SDS011;13877;18.896;-99.222;2022-07-22T05:43:43;32.75;;;15.75;;
12412;SDS011;13877;18.896;-99.222;2022-07-22T05:46:12;40.50;;;14.65;;
12412;SDS011;13877;18.896;-99.222;2022-07-22T05:48:39;28.45;;;12.77;;
12412;SDS011;13877;18.896;-99.222;2022-07-22T05:51:10;33.28;;;13.27;;
12412;SDS011;13877;18.896;-99.222;2022-07-22T05:53:39;22.42;;;12.25;;
12412;SDS011;13877;18.896;-99.222;2022-07-22T05:56:08;30.83;;;12.75;;
12412;SDS011;13877;18.896;-99.222;2022-07-22T05:58:37;28.10;;;12.30;;
12412;SDS011;13877;18.896;-99.222;2022-07-22T06:01:05;23.10;;;11.27;;
12412;SDS011;13877;18.896;-99.222;2022-07-22T06:03:33;34.42;;;12.25;;
12412;SDS011;13877;18.896;-99.222;2022-07-22T06:06:00;31.83;;;12.75;;
12412;SDS011;13877;18.896;-99.222;2022-07-22T06:08:28;22.50;;;10.40;;
12412;SDS011;13877;18.896;-99.222;2022-07-22T06:10:56;30.27;;;11.48;;
12412;SDS011;13877;18.896;-99.222;2022-07-22T06:13:23;27.30;;;9.93;;
12412;SDS011;13877;18.896;-99.222;2022-07-22T06:15:50;16.58;;;8.82;;
12412;SDS011;13877;18.896;-99.222;2022-07-22T06:18:18;21.67;;;9.18;;
12412;SDS011;13877;18.896;-99.222;2022-07-22T06:20:45;20.15;;;9.10;;
12412;SDS011;13877;18.896;-99.222;2022-07-22T06:23:12;18.42;;;8.68;;
12412;SDS011;13877;18.896;-99.222;2022-07-22T06:25:40;19.50;;;8.65;;
12412;SDS011;13877;18.896;-99.222;2022-07-22T06:28:13;23.23;;;9.93;;
12412;SDS011;13877;18.896;-99.222;2022-07-22T06:30:39;34.15;;;9.50;;
12412;SDS011;13877;18.896;-99.222;2022-07-22T06:33:06;19.75;;;10.13;;
12412;SDS011;13877;18.896;-99.222;2022-07-22T06:35:35;19.20;;;9.43;;
12412;SDS011;13877;18.896;-99.222;2022-07-22T06:38:04;35.15;;;13.73;;
12412;SDS011;13877;18.896;-99.222;2022-07-22T06:40:37;22.42;;;13.02;;
12412;SDS011;13877;18.896;-99.222;2022-07-22T06:43:24;29.58;;;13.15;;
12412;SDS011;13877;18.896;-99.222;2022-07-22T06:46:16;22.23;;;12.55;;
12412;SDS011;13877;18.896;-99.222;2022-07-22T06:48:48;15.40;;;7.13;;
12412;SDS011;13877;18.896;-99.222;2022-07-22T06:51:15;13.05;;;6.97;;
12412;SDS011;13877;18.896;-99.222;2022-07-22T06:53:42;8.98;;;4.97;;
12412;SDS011;13877;18.896;-99.222;2022-07-22T06:56:09;10.38;;;4.47;;
12412;SDS011;13877;18.896;-99.222;2022-07-22T06:58:36;13.93;;;4.85;;
12412;SDS011;13877;18.896;-99.222;2022-07-22T07:01:09;9.32;;;4.40;;
12412;SDS011;13877;18.896;-99.222;2022-07-22T07:03:51;6.85;;;4.25;;
12412;SDS011;13877;18.896;-99.222;2022-07-22T07:06:19;9.00;;;4.60;;
12412;SDS011;13877;18.896;-99.222;2022-07-22T07:09:18;10.40;;;4.78;;
12412;SDS011;13877;18.896;-99.222;2022-07-22T07:11:56;10.15;;;4.55;;
12412;SDS011;13877;18.896;-99.222;2022-07-22T07:14:43;7.15;;;4.38;;
12412;SDS011;13877;18.896;-99.222;2022-07-22T07:17:10;8.00;;;4.65;;
12412;SDS011;13877;18.896;-99.222;2022-07-22T07:19:37;8.88;;;5.10;;
12412;SDS011;13877;18.896;-99.222;2022-07-22T07:22:04;6.80;;;4.75;;
12412;SDS011;13877;18.896;-99.222;2022-07-22T07:24:33;10.90;;;4.90;;
12412;SDS011;13877;18.896;-99.222;2022-07-22T07:27:00;7.78;;;4.68;;
12412;SDS011;13877;18.896;-99.222;2022-07-22T07:29:27;8.10;;;5.22;;
12412;SDS011;13877;18.896;-99.222;2022-07-22T07:31:55;8.90;;;5.35;;
12412;SDS011;13877;18.896;-99.222;2022-07-22T07:34:21;9.52;;;4.53;;
12412;SDS011;13877;18.896;-99.222;2022-07-22T07:36:49;13.82;;;5.68;;
12412;SDS011;13877;18.896;-99.222;2022-07-22T07:39:16;8.38;;;5.15;;
12412;SDS011;13877;18.896;-99.222;2022-07-22T07:41:43;9.65;;;5.65;;
12412;SDS011;13877;18.896;-99.222;2022-07-22T07:44:13;18.17;;;6.55;;
12412;SDS011;13877;18.896;-99.222;2022-07-22T07:46:40;13.63;;;6.38;;
12412;SDS011;13877;18.896;-99.222;2022-07-22T07:49:07;13.15;;;6.13;;
12412;SDS011;13877;18.896;-99.222;2022-07-22T07:51:35;14.10;;;6.30;;
12412;SDS011;13877;18.896;-99.222;2022-07-22T07:54:02;13.18;;;6.03;;
12412;SDS011;13877;18.896;-99.222;2022-07-22T07:56:29;10.85;;;6.18;;
12412;SDS011;13877;18.896;-99.222;2022-07-22T07:58:56;9.02;;;5.53;;
12412;SDS011;13877;18.896;-99.222;2022-07-22T08:01:23;10.40;;;6.00;;
12412;SDS011;13877;18.896;-99.222;2022-07-22T08:03:50;11.40;;;6.50;;
12412;SDS011;13877;18.896;-99.222;2022-07-22T08:06:17;14.63;;;6.70;;
12412;SDS011;13877;18.896;-99.222;2022-07-22T08:08:44;15.25;;;6.13;;
12412;SDS011;13877;18.896;-99.222;2022-07-22T08:11:17;12.02;;;6.05;;
12412;SDS011;13877;18.896;-99.222;2022-07-22T08:14:02;14.55;;;6.45;;
12412;SDS011;13877;18.896;-99.222;2022-07-22T08:16:49;11.10;;;6.45;;
12412;SDS011;13877;18.896;-99.222;2022-07-22T08:19:17;18.15;;;6.10;;
12412;SDS011;13877;18.896;-99.222;2022-07-22T08:21:44;13.23;;;6.72;;
12412;SDS011;13877;18.896;-99.222;2022-07-22T08:24:32;14.35;;;6.00;;
12412;SDS011;13877;18.896;-99.222;2022-07-22T08:27:01;9.73;;;6.28;;
12412;SDS011;13877;18.896;-99.222;2022-07-22T08:29:28;12.45;;;6.65;;
12412;SDS011;13877;18.896;-99.222;2022-07-22T08:31:55;15.43;;;7.35;;
12412;SDS011;13877;18.896;-99.222;2022-07-22T08:34:22;13.93;;;6.10;;
12412;SDS011;13877;18.896;-99.222;2022-07-22T08:36:50;12.25;;;6.57;;
12412;SDS011;13877;18.896;-99.222;2022-07-22T08:39:17;9.95;;;6.32;;
12412;SDS011;13877;18.896;-99.222;2022-07-22T08:41:44;12.57;;;7.20;;
12412;SDS011;13877;18.896;-99.222;2022-07-22T08:44:11;11.23;;;6.88;;
12412;SDS011;13877;18.896;-99.222;2022-07-22T08:46:38;14.85;;;7.25;;
12412;SDS011;13877;18.896;-99.222;2022-07-22T08:49:18;14.27;;;7.32;;
12412;SDS011;13877;18.896;-99.222;2022-07-22T08:52:01;15.77;;;7.65;;
12412;SDS011;13877;18.896;-99.222;2022-07-22T08:54:35;17.92;;;7.78;;
12412;SDS011;13877;18.896;-99.222;2022-07-22T08:57:04;19.63;;;7.43;;
12412;SDS011;13877;18.896;-99.222;2022-07-22T08:59:31;11.05;;;6.88;;
12412;SDS011;13877;18.896;-99.222;2022-07-22T09:02:03;10.73;;;6.53;;
12412;SDS011;13877;18.896;-99.222;2022-07-22T09:05:13;12.18;;;6.82;;
12412;SDS011;13877;18.896;-99.222;2022-07-22T09:10:16;22.17;;;8.63;;
12412;SDS011;13877;18.896;-99.222;2022-07-22T09:13:06;15.88;;;8.30;;
12412;SDS011;13877;18.896;-99.222;2022-07-22T09:15:45;17.40;;;8.95;;
12412;SDS011;13877;18.896;-99.222;2022-07-22T09:18:49;13.27;;;9.10;;
12412;SDS011;13877;18.896;-99.222;2022-07-22T09:21:29;17.88;;;9.63;;
12412;SDS011;13877;18.896;-99.222;2022-07-22T09:24:33;21.95;;;10.10;;
12412;SDS011;13877;18.896;-99.222;2022-07-22T09:27:23;17.45;;;9.85;;
12412;SDS011;13877;18.896;-99.222;2022-07-22T09:30:23;17.63;;;9.93;;
12412;SDS011;13877;18.896;-99.222;2022-07-22T09:33:05;22.02;;;10.98;;
12412;SDS011;13877;18.896;-99.222;2022-07-22T09:35:42;19.17;;;10.45;;
12412;SDS011;13877;18.896;-99.222;2022-07-22T09:38:12;16.63;;;10.60;;
12412;SDS011;13877;18.896;-99.222;2022-07-22T09:40:42;17.92;;;10.80;;
12412;SDS011;13877;18.896;-99.222;2022-07-22T09:43:17;17.45;;;10.95;;
12412;SDS011;13877;18.896;-99.222;2022-07-22T09:48:44;22.60;;;11.43;;
12412;SDS011;13877;18.896;-99.222;2022-07-22T09:51:29;21.98;;;11.32;;
12412;SDS011;13877;18.896;-99.222;2022-07-22T09:54:23;20.70;;;10.82;;
12412;SDS011;13877;18.896;-99.222;2022-07-22T09:56:52;23.17;;;11.45;;
12412;SDS011;13877;18.896;-99.222;2022-07-22T09:59:22;17.98;;;10.90;;
12412;SDS011;13877;18.896;-99.222;2022-07-22T10:01:59;20.08;;;11.80;;
12412;SDS011;13877;18.896;-99.222;2022-07-22T10:04:31;21.60;;;12.00;;
12412;SDS011;13877;18.896;-99.222;2022-07-22T10:07:05;21.88;;;11.43;;
12412;SDS011;13877;18.896;-99.222;2022-07-22T10:09:36;16.73;;;11.02;;
12412;SDS011;13877;18.896;-99.222;2022-07-22T10:12:06;23.73;;;11.65;;
12412;SDS011;13877;18.896;-99.222;2022-07-22T10:14:35;18.20;;;11.50;;
12412;SDS011;13877;18.896;-99.222;2022-07-22T10:17:03;16.23;;;10.88;;
12412;SDS011;13877;18.896;-99.222;2022-07-22T10:19:30;18.63;;;10.90;;
12412;SDS011;13877;18.896;-99.222;2022-07-22T10:21:57;19.13;;;10.75;;
12412;SDS011;13877;18.896;-99.222;2022-07-22T10:24:25;17.08;;;10.57;;
12412;SDS011;13877;18.896;-99.222;2022-07-22T10:26:57;16.77;;;11.43;;
12412;SDS011;13877;18.896;-99.222;2022-07-22T10:34:43;17.33;;;11.05;;
12412;SDS011;13877;18.896;-99.222;2022-07-22T10:40:10;19.13;;;10.85;;
12412;SDS011;13877;18.896;-99.222;2022-07-22T10:48:25;16.90;;;10.90;;
12412;SDS011;13877;18.896;-99.222;2022-07-22T10:51:09;20.23;;;10.32;;
12412;SDS011;13877;18.896;-99.222;2022-07-22T10:53:42;18.38;;;9.73;;
12412;SDS011;13877;18.896;-99.222;2022-07-22T10:56:29;18.83;;;10.27;;
12412;SDS011;13877;18.896;-99.222;2022-07-22T10:59:16;14.55;;;10.32;;
12412;SDS011;13877;18.896;-99.222;2022-07-22T11:01:46;22.65;;;9.98;;
12412;SDS011;13877;18.896;-99.222;2022-07-22T11:04:23;17.50;;;9.50;;
12412;SDS011;13877;18.896;-99.222;2022-07-22T11:06:53;22.42;;;10.35;;
12412;SDS011;13877;18.896;-99.222;2022-07-22T11:09:22;25.38;;;11.40;;
12412;SDS011;13877;18.896;-99.222;2022-07-22T11:11:56;24.35;;;9.88;;
12412;SDS011;13877;18.896;-99.222;2022-07-22T11:14:24;15.55;;;9.63;;
12412;SDS011;13877;18.896;-99.222;2022-07-22T11:16:57;29.30;;;11.02;;
12412;SDS011;13877;18.896;-99.222;2022-07-22T11:19:26;18.88;;;10.18;;
12412;SDS011;13877;18.896;-99.222;2022-07-22T11:21:56;20.60;;;10.23;;
12412;SDS011;13877;18.896;-99.222;2022-07-22T11:24:30;23.67;;;10.07;;
12412;SDS011;13877;18.896;-99.222;2022-07-22T11:26:58;17.55;;;10.45;;
12412;SDS011;13877;18.896;-99.222;2022-07-22T11:29:29;18.77;;;9.60;;
12412;SDS011;13877;18.896;-99.222;2022-07-22T11:32:06;21.40;;;10.98;;
12412;SDS011;13877;18.896;-99.222;2022-07-22T11:34:39;22.10;;;10.80;;
12412;SDS011;13877;18.896;-99.222;2022-07-22T11:37:11;22.52;;;10.70;;
12412;SDS011;13877;18.896;-99.222;2022-07-22T11:39:39;20.25;;;10.80;;
12412;SDS011;13877;18.896;-99.222;2022-07-22T11:42:07;18.88;;;10.77;;
12412;SDS011;13877;18.896;-99.222;2022-07-22T11:44:35;21.23;;;11.32;;
12412;SDS011;13877;18.896;-99.222;2022-07-22T11:47:03;25.90;;;11.07;;
12412;SDS011;13877;18.896;-99.222;2022-07-22T11:49:32;22.30;;;12.02;;
12412;SDS011;13877;18.896;-99.222;2022-07-22T11:52:02;18.83;;;11.48;;
12412;SDS011;13877;18.896;-99.222;2022-07-22T11:54:30;20.13;;;12.18;;
12412;SDS011;13877;18.896;-99.222;2022-07-22T11:56:57;23.23;;;11.80;;
12412;SDS011;13877;18.896;-99.222;2022-07-22T11:59:23;27.63;;;12.60;;
12412;SDS011;13877;18.896;-99.222;2022-07-22T12:01:50;26.80;;;12.60;;
12412;SDS011;13877;18.896;-99.222;2022-07-22T12:04:19;30.83;;;13.63;;
12412;SDS011;13877;18.896;-99.222;2022-07-22T12:06:51;24.98;;;12.23;;
12412;SDS011;13877;18.896;-99.222;2022-07-22T12:09:21;23.98;;;12.43;;
12412;SDS011;13877;18.896;-99.222;2022-07-22T12:11:51;27.55;;;11.57;;
12412;SDS011;13877;18.896;-99.222;2022-07-22T12:14:20;24.40;;;12.40;;
12412;SDS011;13877;18.896;-99.222;2022-07-22T12:19:25;20.60;;;11.65;;
12412;SDS011;13877;18.896;-99.222;2022-07-22T12:21:57;29.60;;;12.20;;
12412;SDS011;13877;18.896;-99.222;2022-07-22T12:24:34;25.95;;;12.40;;
12412;SDS011;13877;18.896;-99.222;2022-07-22T12:27:03;23.38;;;11.50;;
12412;SDS011;13877;18.896;-99.222;2022-07-22T12:32:05;30.23;;;12.43;;
12412;SDS011;13877;18.896;-99.222;2022-07-22T12:37:13;20.85;;;12.40;;
12412;SDS011;13877;18.896;-99.222;2022-07-22T12:40:04;32.30;;;15.45;;
12412;SDS011;13877;18.896;-99.222;2022-07-22T12:42:40;40.05;;;17.23;;
12412;SDS011;13877;18.896;-99.222;2022-07-22T12:47:43;31.73;;;14.57;;
12412;SDS011;13877;18.896;-99.222;2022-07-22T12:50:21;26.33;;;13.70;;
12412;SDS011;13877;18.896;-99.222;2022-07-22T12:52:49;26.77;;;13.32;;
12412;SDS011;13877;18.896;-99.222;2022-07-22T12:55:17;27.60;;;13.35;;
12412;SDS011;13877;18.896;-99.222;2022-07-22T12:57:44;40.05;;;13.93;;
12412;SDS011;13877;18.896;-99.222;2022-07-22T13:00:15;27.02;;;13.60;;
12412;SDS011;13877;18.896;-99.222;2022-07-22T13:02:46;30.20;;;13.45;;
12412;SDS011;13877;18.896;-99.222;2022-07-22T13:05:13;23.42;;;12.90;;
12412;SDS011;13877;18.896;-99.222;2022-07-22T13:07:40;25.27;;;12.65;;
12412;SDS011;13877;18.896;-99.222;2022-07-22T13:10:08;33.97;;;13.15;;
12412;SDS011;13877;18.896;-99.222;2022-07-22T13:12:36;28.30;;;13.00;;
12412;SDS011;13877;18.896;-99.222;2022-07-22T13:15:03;24.73;;;13.45;;
12412;SDS011;13877;18.896;-99.222;2022-07-22T13:17:30;28.65;;;14.50;;
12412;SDS011;13877;18.896;-99.222;2022-07-22T13:19:57;28.90;;;13.57;;
12412;SDS011;13877;18.896;-99.222;2022-07-22T13:22:24;29.38;;;14.15;;
12412;SDS011;13877;18.896;-99.222;2022-07-22T13:24:51;20.30;;;13.27;;
12412;SDS011;13877;18.896;-99.222;2022-07-22T13:27:18;24.27;;;12.80;;
12412;SDS011;13877;18.896;-99.222;2022-07-22T13:29:45;25.75;;;12.98;;
12412;SDS011;13877;18.896;-99.222;2022-07-22T13:32:12;29.48;;;12.48;;
12412;SDS011;13877;18.896;-99.222;2022-07-22T13:34:39;25.30;;;13.20;;
12412;SDS011;13877;18.896;-99.222;2022-07-22T13:37:06;25.45;;;12.82;;
12412;SDS011;13877;18.896;-99.222;2022-07-22T13:39:33;24.27;;;12.10;;
12412;SDS011;13877;18.896;-99.222;2022-07-22T13:42:00;23.58;;;11.70;;
12412;SDS011;13877;18.896;-99.222;2022-07-22T13:44:27;24.70;;;12.25;;
12412;SDS011;13877;18.896;-99.222;2022-07-22T13:46:55;29.35;;;12.70;;
12412;SDS011;13877;18.896;-99.222;2022-07-22T13:49:24;26.40;;;15.07;;
12412;SDS011;13877;18.896;-99.222;2022-07-22T13:51:51;26.42;;;11.38;;
12412;SDS011;13877;18.896;-99.222;2022-07-22T13:54:20;20.60;;;9.93;;
12412;SDS011;13877;18.896;-99.222;2022-07-22T13:56:46;18.55;;;10.98;;
12412;SDS011;13877;18.896;-99.222;2022-07-22T13:59:14;24.15;;;10.15;;
12412;SDS011;13877;18.896;-99.222;2022-07-22T14:01:42;26.67;;;11.23;;
12412;SDS011;13877;18.896;-99.222;2022-07-22T14:04:10;19.35;;;10.10;;
12412;SDS011;13877;18.896;-99.222;2022-07-22T14:06:37;24.13;;;10.48;;
12412;SDS011;13877;18.896;-99.222;2022-07-22T14:09:04;20.60;;;10.15;;
12412;SDS011;13877;18.896;-99.222;2022-07-22T14:11:30;24.08;;;11.57;;
12412;SDS011;13877;18.896;-99.222;2022-07-22T14:13:57;26.80;;;10.05;;
12412;SDS011;13877;18.896;-99.222;2022-07-22T14:16:24;15.82;;;10.32;;
12412;SDS011;13877;18.896;-99.222;2022-07-22T14:19:07;18.52;;;9.32;;
12412;SDS011;13877;18.896;-99.222;2022-07-22T14:21:36;13.55;;;9.85;;
12412;SDS011;13877;18.896;-99.222;2022-07-22T14:24:06;20.75;;;10.63;;
12412;SDS011;13877;18.896;-99.222;2022-07-22T14:26:34;20.00;;;9.90;;
12412;SDS011;13877;18.896;-99.222;2022-07-22T14:29:02;19.55;;;9.45;;
12412;SDS011;13877;18.896;-99.222;2022-07-22T14:31:30;23.15;;;10.20;;
12412;SDS011;13877;18.896;-99.222;2022-07-22T14:33:58;23.30;;;9.20;;
12412;SDS011;13877;18.896;-99.222;2022-07-22T14:36:25;21.00;;;9.27;;
12412;SDS011;13877;18.896;-99.222;2022-07-22T14:38:52;16.75;;;9.52;;
12412;SDS011;13877;18.896;-99.222;2022-07-22T14:41:21;16.02;;;10.45;;
12412;SDS011;13877;18.896;-99.222;2022-07-22T14:43:49;16.45;;;10.02;;
12412;SDS011;13877;18.896;-99.222;2022-07-22T14:46:16;18.77;;;9.98;;
12412;SDS011;13877;18.896;-99.222;2022-07-22T14:48:43;22.42;;;10.65;;
12412;SDS011;13877;18.896;-99.222;2022-07-22T14:51:11;19.52;;;10.02;;